sensor_id;sensor_type;location;lat;lon;timestamp;temperature;humidity
1025;DHT22;501;48.214;11.350;2023-05-07T00:01:49;14.00;60.30
1025;DHT22;501;48.214;11.350;2023-05-07T00:04:14;14.00;60.50
1025;DHT22;501;48.214;11.350;2023-05-07T00:06:40;13.90;60.00
1025;DHT22;501;48.214;11.350;2023-05-07T00:09:06;13.90;59.10
1025;DHT22;501;48.214;11.350;2023-05-07T00:11:32;13.90;59.50
1025;DHT22;501;48.214;11.350;2023-05-07T00:13:58;13.90;59.60
1025;DHT22;501;48.214;11.350;2023-05-07T00:16:24;13.90;60.10
1025;DHT22;501;48.214;11.350;2023-05-07T00:18:50;13.80;59.70
1025;DHT22;501;48.214;11.350;2023-05-07T00:21:16;13.80;59.60
1025;DHT22;501;48.214;11.350;2023-05-07T00:23:41;13.80;59.80
1025;DHT22;501;48.214;11.350;2023-05-07T00:26:07;13.80;59.80
1025;DHT22;501;48.214;11.350;2023-05-07T00:28:32;13.70;60.50
1025;DHT22;501;48.214;11.350;2023-05-07T00:30:58;13.70;60.40
1025;DHT22;501;48.214;11.350;2023-05-07T00:33:24;13.70;60.40
1025;DHT22;501;48.214;11.350;2023-05-07T00:35:52;13.70;60.40
1025;DHT22;501;48.214;11.350;2023-05-07T00:38:17;13.60;60.80
1025;DHT22;501;48.214;11.350;2023-05-07T00:40:43;13.60;61.20
1025;DHT22;501;48.214;11.350;2023-05-07T00:43:08;13.60;61.60
1025;DHT22;501;48.214;11.350;2023-05-07T00:45:34;13.50;61.70
1025;DHT22;501;48.214;11.350;2023-05-07T00:48:00;13.50;61.10
1025;DHT22;501;48.214;11.350;2023-05-07T00:50:29;13.50;61.20
1025;DHT22;501;48.214;11.350;2023-05-07T00:52:55;13.50;61.80
1025;DHT22;501;48.214;11.350;2023-05-07T00:55:23;13.50;61.80
1025;DHT22;501;48.214;11.350;2023-05-07T00:57:50;13.50;61.50
1025;DHT22;501;48.214;11.350;2023-05-07T01:00:16;13.50;61.50
1025;DHT22;501;48.214;11.350;2023-05-07T01:02:42;13.50;62.10
1025;DHT22;501;48.214;11.350;2023-05-07T01:05:11;13.50;63.10
1025;DHT22;501;48.214;11.350;2023-05-07T01:07:38;13.50;63.90
1025;DHT22;501;48.214;11.350;2023-05-07T01:10:06;13.50;63.80
1025;DHT22;501;48.214;11.350;2023-05-07T01:12:33;13.50;64.00
1025;DHT22;501;48.214;11.350;2023-05-07T01:15:00;13.40;64.00
1025;DHT22;501;48.214;11.350;2023-05-07T01:17:26;13.40;64.40
1025;DHT22;501;48.214;11.350;2023-05-07T01:19:52;13.40;64.80
1025;DHT22;501;48.214;11.350;2023-05-07T01:22:33;13.40;64.20
1025;DHT22;501;48.214;11.350;2023-05-07T01:25:00;13.40;63.60
1025;DHT22;501;48.214;11.350;2023-05-07T01:27:27;13.40;63.60
1025;DHT22;501;48.214;11.350;2023-05-07T01:29:53;13.40;63.30
1025;DHT22;501;48.214;11.350;2023-05-07T01:34:57;13.40;64.40
1025;DHT22;501;48.214;11.350;2023-05-07T01:37:25;13.40;64.60
1025;DHT22;501;48.214;11.350;2023-05-07T01:39:51;13.40;65.30
1025;DHT22;501;48.214;11.350;2023-05-07T01:42:17;13.30;64.70
1025;DHT22;501;48.214;11.350;2023-05-07T01:44:43;13.30;63.70
1025;DHT22;501;48.214;11.350;2023-05-07T01:47:09;13.30;63.50
1025;DHT22;501;48.214;11.350;2023-05-07T01:49:34;13.30;63.70
1025;DHT22;501;48.214;11.350;2023-05-07T01:52:00;13.30;64.00
1025;DHT22;501;48.214;11.350;2023-05-07T01:54:26;13.30;63.60
1025;DHT22;501;48.214;11.350;2023-05-07T01:56:58;13.30;62.80
1025;DHT22;501;48.214;11.350;2023-05-07T01:59:25;13.30;63.20
1025;DHT22;501;48.214;11.350;2023-05-07T02:01:51;13.30;62.50
1025;DHT22;501;48.214;11.350;2023-05-07T02:04:17;13.30;62.80
1025;DHT22;501;48.214;11.350;2023-05-07T02:06:43;13.20;63.40
1025;DHT22;501;48.214;11.350;2023-05-07T02:09:08;13.20;63.10
1025;DHT22;501;48.214;11.350;2023-05-07T02:11:34;13.20;62.70
1025;DHT22;501;48.214;11.350;2023-05-07T02:14:00;13.20;62.80
1025;DHT22;501;48.214;11.350;2023-05-07T02:16:26;13.20;63.80
1025;DHT22;501;48.214;11.350;2023-05-07T02:18:51;13.20;63.70
1025;DHT22;501;48.214;11.350;2023-05-07T02:21:17;13.20;63.30
1025;DHT22;501;48.214;11.350;2023-05-07T02:23:43;13.10;63.30
1025;DHT22;501;48.214;11.350;2023-05-07T02:26:09;13.10;63.40
1025;DHT22;501;48.214;11.350;2023-05-07T02:28:34;13.10;63.30
1025;DHT22;501;48.214;11.350;2023-05-07T02:31:05;13.10;63.80
1025;DHT22;501;48.214;11.350;2023-05-07T02:33:31;13.10;64.10
1025;DHT22;501;48.214;11.350;2023-05-07T02:35:57;13.10;63.30
1025;DHT22;501;48.214;11.350;2023-05-07T02:38:23;13.10;63.30
1025;DHT22;501;48.214;11.350;2023-05-07T02:40:48;13.10;63.80
1025;DHT22;501;48.214;11.350;2023-05-07T02:43:14;13.10;63.70
1025;DHT22;501;48.214;11.350;2023-05-07T02:45:40;13.10;63.50
1025;DHT22;501;48.214;11.350;2023-05-07T02:48:05;13.10;63.30
1025;DHT22;501;48.214;11.350;2023-05-07T02:50:31;13.00;63.70
1025;DHT22;501;48.214;11.350;2023-05-07T02:52:58;13.00;63.80
1025;DHT22;501;48.214;11.350;2023-05-07T02:55:24;13.00;63.80
1025;DHT22;501;48.214;11.350;2023-05-07T02:57:49;13.00;62.80
1025;DHT22;501;48.214;11.350;2023-05-07T03:00:17;13.00;63.00
1025;DHT22;501;48.214;11.350;2023-05-07T03:02:44;13.00;63.60
1025;DHT22;501;48.214;11.350;2023-05-07T03:05:09;13.00;63.90
1025;DHT22;501;48.214;11.350;2023-05-07T03:07:36;12.90;63.80
1025;DHT22;501;48.214;11.350;2023-05-07T03:10:03;12.90;63.60
1025;DHT22;501;48.214;11.350;2023-05-07T03:12:29;12.90;64.10
1025;DHT22;501;48.214;11.350;2023-05-07T03:14:55;12.90;63.60
1025;DHT22;501;48.214;11.350;2023-05-07T03:17:21;12.90;63.60
1025;DHT22;501;48.214;11.350;2023-05-07T03:19:47;12.90;63.20
1025;DHT22;501;48.214;11.350;2023-05-07T03:22:12;12.80;63.60
1025;DHT22;501;48.214;11.350;2023-05-07T03:24:38;12.80;62.60
1025;DHT22;501;48.214;11.350;2023-05-07T03:27:03;12.80;62.50
1025;DHT22;501;48.214;11.350;2023-05-07T03:29:29;12.80;63.00
1025;DHT22;501;48.214;11.350;2023-05-07T03:31:55;12.80;63.20
1025;DHT22;501;48.214;11.350;2023-05-07T03:34:20;12.80;62.80
1025;DHT22;501;48.214;11.350;2023-05-07T03:36:50;12.80;63.30
1025;DHT22;501;48.214;11.350;2023-05-07T03:39:16;12.70;63.50
1025;DHT22;501;48.214;11.350;2023-05-07T03:41:42;12.70;63.90
1025;DHT22;501;48.214;11.350;2023-05-07T03:44:08;12.60;64.10
1025;DHT22;501;48.214;11.350;2023-05-07T03:46:34;12.60;63.30
1025;DHT22;501;48.214;11.350;2023-05-07T03:48:59;12.60;63.00
1025;DHT22;501;48.214;11.350;2023-05-07T03:51:25;12.60;63.30
1025;DHT22;501;48.214;11.350;2023-05-07T03:53:52;12.60;63.40
1025;DHT22;501;48.214;11.350;2023-05-07T03:56:22;12.60;63.60
1025;DHT22;501;48.214;11.350;2023-05-07T03:58:52;12.60;63.50
1025;DHT22;501;48.214;11.350;2023-05-07T04:01:17;12.50;63.10
1025;DHT22;501;48.214;11.350;2023-05-07T04:03:43;12.50;64.10
1025;DHT22;501;48.214;11.350;2023-05-07T04:06:08;12.50;63.80
1025;DHT22;501;48.214;11.350;2023-05-07T04:08:34;12.50;64.50
1025;DHT22;501;48.214;11.350;2023-05-07T04:11:00;12.50;64.30
1025;DHT22;501;48.214;11.350;2023-05-07T04:13:25;12.50;64.40
1025;DHT22;501;48.214;11.350;2023-05-07T04:15:52;12.50;64.90
1025;DHT22;501;48.214;11.350;2023-05-07T04:18:18;12.50;64.70
1025;DHT22;501;48.214;11.350;2023-05-07T04:20:43;12.50;64.40
1025;DHT22;501;48.214;11.350;2023-05-07T04:23:09;12.50;64.60
1025;DHT22;501;48.214;11.350;2023-05-07T04:25:34;12.40;64.70
1025;DHT22;501;48.214;11.350;2023-05-07T04:28:00;12.40;65.00
1025;DHT22;501;48.214;11.350;2023-05-07T04:30:26;12.40;64.90
1025;DHT22;501;48.214;11.350;2023-05-07T04:32:52;12.50;65.40
1025;DHT22;501;48.214;11.350;2023-05-07T04:35:18;12.50;66.30
1025;DHT22;501;48.214;11.350;2023-05-07T04:37:44;12.50;65.80
1025;DHT22;501;48.214;11.350;2023-05-07T04:40:10;12.50;65.50
1025;DHT22;501;48.214;11.350;2023-05-07T04:42:36;12.50;65.20
1025;DHT22;501;48.214;11.350;2023-05-07T04:45:02;12.60;65.70
1025;DHT22;501;48.214;11.350;2023-05-07T04:47:27;12.60;65.50
1025;DHT22;501;48.214;11.350;2023-05-07T04:49:53;12.70;65.50
1025;DHT22;501;48.214;11.350;2023-05-07T04:52:19;12.70;65.10
1025;DHT22;501;48.214;11.350;2023-05-07T04:54:44;12.70;65.20
1025;DHT22;501;48.214;11.350;2023-05-07T04:57:10;12.80;65.80
1025;DHT22;501;48.214;11.350;2023-05-07T04:59:35;12.80;65.90
1025;DHT22;501;48.214;11.350;2023-05-07T05:02:01;12.90;66.20
1025;DHT22;501;48.214;11.350;2023-05-07T05:04:27;12.90;66.30
1025;DHT22;501;48.214;11.350;2023-05-07T05:06:52;12.90;66.50
1025;DHT22;501;48.214;11.350;2023-05-07T05:09:18;13.00;66.80
1025;DHT22;501;48.214;11.350;2023-05-07T05:11:44;13.00;67.10
1025;DHT22;501;48.214;11.350;2023-05-07T05:14:10;13.10;67.40
1025;DHT22;501;48.214;11.350;2023-05-07T05:16:35;13.10;67.30
1025;DHT22;501;48.214;11.350;2023-05-07T05:19:01;13.20;67.90
1025;DHT22;501;48.214;11.350;2023-05-07T05:21:27;13.20;68.50
1025;DHT22;501;48.214;11.350;2023-05-07T05:23:53;13.30;68.90
1025;DHT22;501;48.214;11.350;2023-05-07T05:26:18;13.40;68.50
1025;DHT22;501;48.214;11.350;2023-05-07T05:28:44;13.40;68.50
1025;DHT22;501;48.214;11.350;2023-05-07T05:31:10;13.50;68.20
1025;DHT22;501;48.214;11.350;2023-05-07T05:33:35;13.50;67.90
1025;DHT22;501;48.214;11.350;2023-05-07T05:36:01;13.60;67.40
1025;DHT22;501;48.214;11.350;2023-05-07T05:38:27;13.70;67.50
1025;DHT22;501;48.214;11.350;2023-05-07T05:40:52;13.70;66.80
1025;DHT22;501;48.214;11.350;2023-05-07T05:43:18;13.80;66.30
1025;DHT22;501;48.214;11.350;2023-05-07T05:45:44;13.80;66.60
1025;DHT22;501;48.214;11.350;2023-05-07T05:48:09;13.90;66.60
1025;DHT22;501;48.214;11.350;2023-05-07T05:50:35;14.00;66.60
1025;DHT22;501;48.214;11.350;2023-05-07T05:53:03;14.10;66.40
1025;DHT22;501;48.214;11.350;2023-05-07T05:55:30;14.20;66.70
1025;DHT22;501;48.214;11.350;2023-05-07T05:57:58;14.20;66.70
1025;DHT22;501;48.214;11.350;2023-05-07T06:00:24;14.30;66.70
1025;DHT22;501;48.214;11.350;2023-05-07T06:02:49;14.30;66.60
1025;DHT22;501;48.214;11.350;2023-05-07T06:05:15;14.40;66.40
1025;DHT22;501;48.214;11.350;2023-05-07T06:07:40;14.50;66.50
1025;DHT22;501;48.214;11.350;2023-05-07T06:10:06;14.50;67.40
1025;DHT22;501;48.214;11.350;2023-05-07T06:12:32;14.60;67.40
1025;DHT22;501;48.214;11.350;2023-05-07T06:14:58;14.60;67.10
1025;DHT22;501;48.214;11.350;2023-05-07T06:17:24;14.70;67.30
1025;DHT22;501;48.214;11.350;2023-05-07T06:19:49;14.70;67.30
1025;DHT22;501;48.214;11.350;2023-05-07T06:22:15;14.80;67.60
1025;DHT22;501;48.214;11.350;2023-05-07T06:24:40;14.90;67.60
1025;DHT22;501;48.214;11.350;2023-05-07T06:27:06;15.00;68.00
1025;DHT22;501;48.214;11.350;2023-05-07T06:29:32;15.00;66.90
1025;DHT22;501;48.214;11.350;2023-05-07T06:32:09;15.10;66.60
1025;DHT22;501;48.214;11.350;2023-05-07T06:34:35;15.20;66.70
1025;DHT22;501;48.214;11.350;2023-05-07T06:37:01;15.30;67.30
1025;DHT22;501;48.214;11.350;2023-05-07T06:39:26;15.30;66.30
1025;DHT22;501;48.214;11.350;2023-05-07T06:41:52;15.40;66.50
1025;DHT22;501;48.214;11.350;2023-05-07T06:44:18;15.50;66.10
1025;DHT22;501;48.214;11.350;2023-05-07T06:46:44;15.60;65.10
1025;DHT22;501;48.214;11.350;2023-05-07T06:49:10;15.70;64.50
1025;DHT22;501;48.214;11.350;2023-05-07T06:51:36;15.80;65.30
1025;DHT22;501;48.214;11.350;2023-05-07T06:54:02;15.80;65.50
1025;DHT22;501;48.214;11.350;2023-05-07T06:56:29;15.90;64.70
1025;DHT22;501;48.214;11.350;2023-05-07T06:58:55;16.00;63.80
1025;DHT22;501;48.214;11.350;2023-05-07T07:01:21;16.00;63.60
1025;DHT22;501;48.214;11.350;2023-05-07T07:03:46;16.10;63.20
1025;DHT22;501;48.214;11.350;2023-05-07T07:06:12;16.10;62.60
1025;DHT22;501;48.214;11.350;2023-05-07T07:08:38;16.20;62.70
1025;DHT22;501;48.214;11.350;2023-05-07T07:11:11;16.30;62.20
1025;DHT22;501;48.214;11.350;2023-05-07T07:13:37;16.30;62.00
1025;DHT22;501;48.214;11.350;2023-05-07T07:16:03;16.40;61.40
1025;DHT22;501;48.214;11.350;2023-05-07T07:18:28;16.50;62.50
1025;DHT22;501;48.214;11.350;2023-05-07T07:20:54;16.60;62.70
1025;DHT22;501;48.214;11.350;2023-05-07T07:23:23;16.60;61.10
1025;DHT22;501;48.214;11.350;2023-05-07T07:25:48;16.70;61.40
1025;DHT22;501;48.214;11.350;2023-05-07T07:28:14;16.70;61.50
1025;DHT22;501;48.214;11.350;2023-05-07T07:30:40;16.80;61.00
1025;DHT22;501;48.214;11.350;2023-05-07T07:33:05;16.90;59.30
1025;DHT22;501;48.214;11.350;2023-05-07T07:35:37;16.90;58.40
1025;DHT22;501;48.214;11.350;2023-05-07T07:38:02;17.00;58.90
1025;DHT22;501;48.214;11.350;2023-05-07T07:40:28;17.10;59.80
1025;DHT22;501;48.214;11.350;2023-05-07T07:42:54;17.10;58.70
1025;DHT22;501;48.214;11.350;2023-05-07T07:45:20;17.20;57.20
1025;DHT22;501;48.214;11.350;2023-05-07T07:47:45;17.30;55.60
1025;DHT22;501;48.214;11.350;2023-05-07T07:50:11;17.30;56.00
1025;DHT22;501;48.214;11.350;2023-05-07T07:52:38;17.30;55.60
1025;DHT22;501;48.214;11.350;2023-05-07T07:55:04;17.40;55.70
1025;DHT22;501;48.214;11.350;2023-05-07T07:57:30;17.40;54.70
1025;DHT22;501;48.214;11.350;2023-05-07T07:59:56;17.50;55.80
1025;DHT22;501;48.214;11.350;2023-05-07T08:02:21;17.50;53.50
1025;DHT22;501;48.214;11.350;2023-05-07T08:04:47;17.60;53.10
1025;DHT22;501;48.214;11.350;2023-05-07T08:07:13;17.70;53.40
1025;DHT22;501;48.214;11.350;2023-05-07T08:09:39;17.70;53.00
1025;DHT22;501;48.214;11.350;2023-05-07T08:12:05;17.80;52.10
1025;DHT22;501;48.214;11.350;2023-05-07T08:14:31;17.90;51.50
1025;DHT22;501;48.214;11.350;2023-05-07T08:16:57;17.90;50.10
1025;DHT22;501;48.214;11.350;2023-05-07T08:19:23;18.00;51.30
1025;DHT22;501;48.214;11.350;2023-05-07T08:21:48;18.10;49.50
1025;DHT22;501;48.214;11.350;2023-05-07T08:24:14;18.10;48.80
1025;DHT22;501;48.214;11.350;2023-05-07T08:26:40;18.20;49.00
1025;DHT22;501;48.214;11.350;2023-05-07T08:29:06;18.20;49.70
1025;DHT22;501;48.214;11.350;2023-05-07T08:31:32;18.30;48.20
1025;DHT22;501;48.214;11.350;2023-05-07T08:33:58;18.30;47.40
1025;DHT22;501;48.214;11.350;2023-05-07T08:36:24;18.40;45.60
1025;DHT22;501;48.214;11.350;2023-05-07T08:38:51;18.40;45.30
1025;DHT22;501;48.214;11.350;2023-05-07T08:41:17;18.40;45.10
1025;DHT22;501;48.214;11.350;2023-05-07T08:43:48;18.50;44.60
1025;DHT22;501;48.214;11.350;2023-05-07T08:46:21;18.50;44.70
1025;DHT22;501;48.214;11.350;2023-05-07T08:48:51;18.60;43.90
1025;DHT22;501;48.214;11.350;2023-05-07T08:51:21;18.70;44.10
1025;DHT22;501;48.214;11.350;2023-05-07T08:53:48;18.80;42.50
1025;DHT22;501;48.214;11.350;2023-05-07T08:56:14;18.90;42.00
1025;DHT22;501;48.214;11.350;2023-05-07T08:58:44;18.90;42.70
1025;DHT22;501;48.214;11.350;2023-05-07T09:01:14;19.00;42.90
1025;DHT22;501;48.214;11.350;2023-05-07T09:03:40;19.00;41.90
1025;DHT22;501;48.214;11.350;2023-05-07T09:06:07;19.10;41.90
1025;DHT22;501;48.214;11.350;2023-05-07T09:08:36;19.10;41.50
1025;DHT22;501;48.214;11.350;2023-05-07T09:11:02;19.20;41.20
1025;DHT22;501;48.214;11.350;2023-05-07T09:13:28;19.30;42.60
1025;DHT22;501;48.214;11.350;2023-05-07T09:15:55;19.40;44.00
1025;DHT22;501;48.214;11.350;2023-05-07T09:18:21;19.50;43.80
1025;DHT22;501;48.214;11.350;2023-05-07T09:20:46;19.50;42.00
1025;DHT22;501;48.214;11.350;2023-05-07T09:23:12;19.50;41.20
1025;DHT22;501;48.214;11.350;2023-05-07T09:25:39;19.60;40.20
1025;DHT22;501;48.214;11.350;2023-05-07T09:28:05;19.60;39.30
1025;DHT22;501;48.214;11.350;2023-05-07T09:30:35;19.70;41.00
1025;DHT22;501;48.214;11.350;2023-05-07T09:33:03;19.80;42.30
1025;DHT22;501;48.214;11.350;2023-05-07T09:35:30;19.80;40.00
1025;DHT22;501;48.214;11.350;2023-05-07T09:38:00;19.90;36.90
1025;DHT22;501;48.214;11.350;2023-05-07T09:40:28;19.90;37.20
1025;DHT22;501;48.214;11.350;2023-05-07T09:42:55;20.00;36.20
1025;DHT22;501;48.214;11.350;2023-05-07T09:45:27;20.00;35.50
1025;DHT22;501;48.214;11.350;2023-05-07T09:47:58;20.10;35.60
1025;DHT22;501;48.214;11.350;2023-05-07T09:50:27;20.10;37.60
1025;DHT22;501;48.214;11.350;2023-05-07T09:52:57;20.20;37.90
1025;DHT22;501;48.214;11.350;2023-05-07T09:55:23;20.20;37.10
1025;DHT22;501;48.214;11.350;2023-05-07T09:57:53;20.30;38.30
1025;DHT22;501;48.214;11.350;2023-05-07T10:00:20;20.40;38.00
1025;DHT22;501;48.214;11.350;2023-05-07T10:02:51;20.50;39.00
1025;DHT22;501;48.214;11.350;2023-05-07T10:05:21;20.60;37.20
1025;DHT22;501;48.214;11.350;2023-05-07T10:07:47;20.60;36.10
1025;DHT22;501;48.214;11.350;2023-05-07T10:10:14;20.70;35.90
1025;DHT22;501;48.214;11.350;2023-05-07T10:12:41;20.70;35.60
1025;DHT22;501;48.214;11.350;2023-05-07T10:15:11;20.80;33.30
1025;DHT22;501;48.214;11.350;2023-05-07T10:17:40;20.70;32.60
1025;DHT22;501;48.214;11.350;2023-05-07T10:20:06;20.80;33.20
1025;DHT22;501;48.214;11.350;2023-05-07T10:22:47;20.80;32.60
1025;DHT22;501;48.214;11.350;2023-05-07T10:25:21;20.90;34.40
1025;DHT22;501;48.214;11.350;2023-05-07T10:27:47;21.00;33.60
1025;DHT22;501;48.214;11.350;2023-05-07T10:30:38;21.00;32.00
1025;DHT22;501;48.214;11.350;2023-05-07T10:33:07;21.00;32.70
1025;DHT22;501;48.214;11.350;2023-05-07T10:35:42;21.00;32.80
1025;DHT22;501;48.214;11.350;2023-05-07T10:38:09;21.10;32.70
1025;DHT22;501;48.214;11.350;2023-05-07T10:40:35;21.20;31.90
1025;DHT22;501;48.214;11.350;2023-05-07T10:43:03;21.30;32.00
1025;DHT22;501;48.214;11.350;2023-05-07T10:45:31;21.30;32.00
1025;DHT22;501;48.214;11.350;2023-05-07T10:50:36;21.40;33.20
1025;DHT22;501;48.214;11.350;2023-05-07T10:55:45;21.50;33.50
1025;DHT22;501;48.214;11.350;2023-05-07T11:00:56;21.60;32.20
1025;DHT22;501;48.214;11.350;2023-05-07T11:03:22;21.70;32.30
1025;DHT22;501;48.214;11.350;2023-05-07T11:06:10;21.90;32.50
1025;DHT22;501;48.214;11.350;2023-05-07T11:08:54;21.90;32.50
1025;DHT22;501;48.214;11.350;2023-05-07T11:14:09;22.10;31.80
1025;DHT22;501;48.214;11.350;2023-05-07T11:16:35;22.20;31.50
1025;DHT22;501;48.214;11.350;2023-05-07T11:19:03;22.20;30.10
1025;DHT22;501;48.214;11.350;2023-05-07T11:21:39;22.30;30.00
1025;DHT22;501;48.214;11.350;2023-05-07T11:24:09;22.40;31.00
1025;DHT22;501;48.214;11.350;2023-05-07T11:26:47;22.60;30.00
1025;DHT22;501;48.214;11.350;2023-05-07T11:29:15;22.80;30.30
1025;DHT22;501;48.214;11.350;2023-05-07T11:31:41;22.90;30.20
1025;DHT22;501;48.214;11.350;2023-05-07T11:34:08;23.10;30.20
1025;DHT22;501;48.214;11.350;2023-05-07T11:36:34;23.30;29.80
1025;DHT22;501;48.214;11.350;2023-05-07T11:38:59;23.40;30.00
1025;DHT22;501;48.214;11.350;2023-05-07T11:41:35;23.60;28.40
1025;DHT22;501;48.214;11.350;2023-05-07T11:44:02;23.70;28.40
1025;DHT22;501;48.214;11.350;2023-05-07T11:46:28;23.90;29.50
1025;DHT22;501;48.214;11.350;2023-05-07T11:48:55;24.00;27.90
1025;DHT22;501;48.214;11.350;2023-05-07T11:51:23;24.10;28.00
1025;DHT22;501;48.214;11.350;2023-05-07T11:53:51;24.20;27.70
1025;DHT22;501;48.214;11.350;2023-05-07T11:56:17;24.30;28.20
1025;DHT22;501;48.214;11.350;2023-05-07T11:58:45;24.40;28.10
1025;DHT22;501;48.214;11.350;2023-05-07T12:01:11;24.50;27.20
1025;DHT22;501;48.214;11.350;2023-05-07T12:03:41;24.60;27.10
1025;DHT22;501;48.214;11.350;2023-05-07T12:06:15;24.60;26.40
1025;DHT22;501;48.214;11.350;2023-05-07T12:08:41;24.70;27.20
1025;DHT22;501;48.214;11.350;2023-05-07T12:11:09;24.80;27.70
1025;DHT22;501;48.214;11.350;2023-05-07T12:13:36;24.80;27.10
1025;DHT22;501;48.214;11.350;2023-05-07T12:16:04;24.80;26.60
1025;DHT22;501;48.214;11.350;2023-05-07T12:18:31;24.80;26.80
1025;DHT22;501;48.214;11.350;2023-05-07T12:20:57;24.90;27.20
1025;DHT22;501;48.214;11.350;2023-05-07T12:23:23;24.90;27.10
1025;DHT22;501;48.214;11.350;2023-05-07T12:25:49;24.90;27.50
1025;DHT22;501;48.214;11.350;2023-05-07T12:28:16;25.00;26.70
1025;DHT22;501;48.214;11.350;2023-05-07T12:30:47;24.90;26.60
1025;DHT22;501;48.214;11.350;2023-05-07T12:33:17;24.90;26.20
1025;DHT22;501;48.214;11.350;2023-05-07T12:35:44;24.90;26.80
1025;DHT22;501;48.214;11.350;2023-05-07T12:38:17;24.90;26.60
1025;DHT22;501;48.214;11.350;2023-05-07T12:40:45;24.80;26.60
1025;DHT22;501;48.214;11.350;2023-05-07T12:43:27;24.70;26.50
1025;DHT22;501;48.214;11.350;2023-05-07T12:45:59;24.70;26.50
1025;DHT22;501;48.214;11.350;2023-05-07T12:48:25;24.60;26.40
1025;DHT22;501;48.214;11.350;2023-05-07T12:50:56;24.60;26.40
1025;DHT22;501;48.214;11.350;2023-05-07T12:53:24;24.70;26.50
1025;DHT22;501;48.214;11.350;2023-05-07T12:55:55;24.70;26.50
1025;DHT22;501;48.214;11.350;2023-05-07T12:58:33;24.80;26.70
1025;DHT22;501;48.214;11.350;2023-05-07T13:01:04;24.90;27.00
1025;DHT22;501;48.214;11.350;2023-05-07T13:03:35;25.10;27.50
1025;DHT22;501;48.214;11.350;2023-05-07T13:06:08;25.30;26.10
1025;DHT22;501;48.214;11.350;2023-05-07T13:08:41;25.40;26.20
1025;DHT22;501;48.214;11.350;2023-05-07T13:11:11;25.50;26.60
1025;DHT22;501;48.214;11.350;2023-05-07T13:13:38;25.60;25.70
1025;DHT22;501;48.214;11.350;2023-05-07T13:16:05;25.70;26.20
1025;DHT22;501;48.214;11.350;2023-05-07T13:18:32;25.70;25.90
1025;DHT22;501;48.214;11.350;2023-05-07T13:20:59;25.70;24.50
1025;DHT22;501;48.214;11.350;2023-05-07T13:23:25;25.60;24.70
1025;DHT22;501;48.214;11.350;2023-05-07T13:25:51;25.60;25.10
1025;DHT22;501;48.214;11.350;2023-05-07T13:28:19;25.50;25.00
1025;DHT22;501;48.214;11.350;2023-05-07T13:30:46;25.50;24.50
1025;DHT22;501;48.214;11.350;2023-05-07T13:33:11;25.40;25.20
1025;DHT22;501;48.214;11.350;2023-05-07T13:35:37;25.40;25.70
1025;DHT22;501;48.214;11.350;2023-05-07T13:38:03;25.40;25.80
1025;DHT22;501;48.214;11.350;2023-05-07T13:40:29;25.30;24.80
1025;DHT22;501;48.214;11.350;2023-05-07T13:42:57;25.20;24.60
1025;DHT22;501;48.214;11.350;2023-05-07T13:45:24;25.20;25.70
1025;DHT22;501;48.214;11.350;2023-05-07T13:47:51;25.20;24.80
1025;DHT22;501;48.214;11.350;2023-05-07T13:50:17;25.10;24.90
1025;DHT22;501;48.214;11.350;2023-05-07T13:52:43;25.00;25.60
1025;DHT22;501;48.214;11.350;2023-05-07T13:55:23;24.90;25.70
1025;DHT22;501;48.214;11.350;2023-05-07T13:57:55;24.80;24.90
1025;DHT22;501;48.214;11.350;2023-05-07T14:00:21;24.70;26.50
1025;DHT22;501;48.214;11.350;2023-05-07T14:02:47;24.60;25.90
1025;DHT22;501;48.214;11.350;2023-05-07T14:05:13;24.50;25.90
1025;DHT22;501;48.214;11.350;2023-05-07T14:07:39;24.40;26.30
1025;DHT22;501;48.214;11.350;2023-05-07T14:10:05;24.30;26.70
1025;DHT22;501;48.214;11.350;2023-05-07T14:12:32;24.30;26.20
1025;DHT22;501;48.214;11.350;2023-05-07T14:14:58;24.20;26.20
1025;DHT22;501;48.214;11.350;2023-05-07T14:17:23;24.10;27.00
1025;DHT22;501;48.214;11.350;2023-05-07T14:19:52;24.00;26.60
1025;DHT22;501;48.214;11.350;2023-05-07T14:22:20;23.90;27.50
1025;DHT22;501;48.214;11.350;2023-05-07T14:24:46;23.80;28.00
1025;DHT22;501;48.214;11.350;2023-05-07T14:27:11;23.70;27.80
1025;DHT22;501;48.214;11.350;2023-05-07T14:29:37;23.60;27.90
1025;DHT22;501;48.214;11.350;2023-05-07T14:32:03;23.50;27.50
1025;DHT22;501;48.214;11.350;2023-05-07T14:34:29;23.50;28.40
1025;DHT22;501;48.214;11.350;2023-05-07T14:36:54;23.40;27.90
1025;DHT22;501;48.214;11.350;2023-05-07T14:39:21;23.40;28.00
1025;DHT22;501;48.214;11.350;2023-05-07T14:41:46;23.30;27.80
1025;DHT22;501;48.214;11.350;2023-05-07T14:44:12;23.20;28.10
1025;DHT22;501;48.214;11.350;2023-05-07T14:46:38;23.10;27.70
1025;DHT22;501;48.214;11.350;2023-05-07T14:49:03;23.00;28.30
1025;DHT22;501;48.214;11.350;2023-05-07T14:51:29;22.90;28.20
1025;DHT22;501;48.214;11.350;2023-05-07T14:53:56;22.90;28.30
1025;DHT22;501;48.214;11.350;2023-05-07T14:56:22;22.80;29.00
1025;DHT22;501;48.214;11.350;2023-05-07T14:58:47;22.80;29.00
1025;DHT22;501;48.214;11.350;2023-05-07T15:01:16;22.70;29.20
1025;DHT22;501;48.214;11.350;2023-05-07T15:03:42;22.70;29.30
1025;DHT22;501;48.214;11.350;2023-05-07T15:06:07;22.70;28.70
1025;DHT22;501;48.214;11.350;2023-05-07T15:08:33;22.70;28.70
1025;DHT22;501;48.214;11.350;2023-05-07T15:10:58;22.70;28.90
1025;DHT22;501;48.214;11.350;2023-05-07T15:13:24;22.70;29.30
1025;DHT22;501;48.214;11.350;2023-05-07T15:15:50;22.60;29.50
1025;DHT22;501;48.214;11.350;2023-05-07T15:18:16;22.60;29.00
1025;DHT22;501;48.214;11.350;2023-05-07T15:20:42;22.60;28.80
1025;DHT22;501;48.214;11.350;2023-05-07T15:23:08;22.50;29.20
1025;DHT22;501;48.214;11.350;2023-05-07T15:25:38;22.50;28.70
1025;DHT22;501;48.214;11.350;2023-05-07T15:28:04;22.50;28.30
1025;DHT22;501;48.214;11.350;2023-05-07T15:30:30;22.40;28.90
1025;DHT22;501;48.214;11.350;2023-05-07T15:32:56;22.30;28.80
1025;DHT22;501;48.214;11.350;2023-05-07T15:35:21;22.30;29.60
1025;DHT22;501;48.214;11.350;2023-05-07T15:37:48;22.20;30.10
1025;DHT22;501;48.214;11.350;2023-05-07T15:40:18;22.10;29.40
1025;DHT22;501;48.214;11.350;2023-05-07T15:42:44;22.10;29.50
1025;DHT22;501;48.214;11.350;2023-05-07T15:45:10;22.00;29.90
1025;DHT22;501;48.214;11.350;2023-05-07T15:47:36;22.00;30.40
1025;DHT22;501;48.214;11.350;2023-05-07T15:50:02;22.00;31.10
1025;DHT22;501;48.214;11.350;2023-05-07T15:52:29;21.90;31.20
1025;DHT22;501;48.214;11.350;2023-05-07T15:54:56;21.90;31.80
1025;DHT22;501;48.214;11.350;2023-05-07T15:57:22;21.80;31.70
1025;DHT22;501;48.214;11.350;2023-05-07T15:59:48;21.80;31.60
1025;DHT22;501;48.214;11.350;2023-05-07T16:02:14;21.70;31.20
1025;DHT22;501;48.214;11.350;2023-05-07T16:04:40;21.70;32.30
1025;DHT22;501;48.214;11.350;2023-05-07T16:07:06;21.70;32.30
1025;DHT22;501;48.214;11.350;2023-05-07T16:09:32;21.70;32.30
1025;DHT22;501;48.214;11.350;2023-05-07T16:11:58;21.70;32.30
1025;DHT22;501;48.214;11.350;2023-05-07T16:14:24;21.60;31.00